sensor_id;sensor_type;location;lat;lon;timestamp;temperature;humidity
39277;DHT22;63149;48.086;-1.606;2023-07-20T05:01:11;16.30;99.90
39277;DHT22;63149;48.086;-1.606;2023-07-20T05:03:38;16.30;99.90
39277;DHT22;63149;48.086;-1.606;2023-07-20T05:06:05;16.30;99.90
39277;DHT22;63149;48.086;-1.606;2023-07-20T05:08:32;16.30;99.90
39277;DHT22;63149;48.086;-1.606;2023-07-20T05:10:59;16.30;99.90
39277;DHT22;63149;48.086;-1.606;2023-07-20T05:13:26;16.30;99.90
39277;DHT22;63149;48.086;-1.606;2023-07-20T05:15:53;16.20;99.90
39277;DHT22;63149;48.086;-1.606;2023-07-20T05:18:23;16.20;99.90
39277;DHT22;63149;48.086;-1.606;2023-07-20T05:20:50;16.20;99.90
39277;DHT22;63149;48.086;-1.606;2023-07-20T05:23:18;16.20;99.90
39277;DHT22;63149;48.086;-1.606;2023-07-20T05:25:45;16.20;99.90
39277;DHT22;63149;48.086;-1.606;2023-07-20T05:28:12;16.20;99.90
39277;DHT22;63149;48.086;-1.606;2023-07-20T05:30:40;16.20;99.90
39277;DHT22;63149;48.086;-1.606;2023-07-20T05:33:07;16.20;99.90
39277;DHT22;63149;48.086;-1.606;2023-07-20T05:35:36;16.20;99.90
39277;DHT22;63149;48.086;-1.606;2023-07-20T05:38:03;16.20;99.90
39277;DHT22;63149;48.086;-1.606;2023-07-20T05:40:32;16.20;99.90
39277;DHT22;63149;48.086;-1.606;2023-07-20T05:42:59;16.30;99.90
39277;DHT22;63149;48.086;-1.606;2023-07-20T05:45:26;16.20;99.90
39277;DHT22;63149;48.086;-1.606;2023-07-20T05:47:53;16.20;99.90
39277;DHT22;63149;48.086;-1.606;2023-07-20T05:50:20;16.20;99.90
39277;DHT22;63149;48.086;-1.606;2023-07-20T05:52:48;16.30;99.90
39277;DHT22;63149;48.086;-1.606;2023-07-20T05:55:15;16.20;99.90
39277;DHT22;63149;48.086;-1.606;2023-07-20T05:57:42;16.20;99.90
39277;DHT22;63149;48.086;-1.606;2023-07-20T06:00:10;16.30;99.90
39277;DHT22;63149;48.086;-1.606;2023-07-20T06:02:38;16.30;99.90
39277;DHT22;63149;48.086;-1.606;2023-07-20T06:05:06;16.30;99.90
39277;DHT22;63149;48.086;-1.606;2023-07-20T06:07:35;16.40;99.90
39277;DHT22;63149;48.086;-1.606;2023-07-20T06:10:04;16.40;99.90
39277;DHT22;63149;48.086;-1.606;2023-07-20T06:12:31;16.50;99.90
39277;DHT22;63149;48.086;-1.606;2023-07-20T06:15:02;16.50;99.90
39277;DHT22;63149;48.086;-1.606;2023-07-20T06:17:29;16.60;99.90
39277;DHT22;63149;48.086;-1.606;2023-07-20T06:19:56;16.60;99.90
39277;DHT22;63149;48.086;-1.606;2023-07-20T06:22:23;16.70;99.90
39277;DHT22;63149;48.086;-1.606;2023-07-20T06:24:50;16.70;99.90
39277;DHT22;63149;48.086;-1.606;2023-07-20T06:27:18;16.80;99.90
39277;DHT22;63149;48.086;-1.606;2023-07-20T06:29:45;16.90;99.90
39277;DHT22;63149;48.086;-1.606;2023-07-20T06:32:12;16.90;99.90
39277;DHT22;63149;48.086;-1.606;2023-07-20T06:34:39;16.90;99.90
39277;DHT22;63149;48.086;-1.606;2023-07-20T06:37:06;17.00;99.90
39277;DHT22;63149;48.086;-1.606;2023-07-20T06:39:33;17.00;99.90
39277;DHT22;63149;48.086;-1.606;2023-07-20T06:42:00;17.00;99.90
39277;DHT22;63149;48.086;-1.606;2023-07-20T06:44:28;17.10;99.90
39277;DHT22;63149;48.086;-1.606;2023-07-20T06:46:55;17.10;99.90
39277;DHT22;63149;48.086;-1.606;2023-07-20T06:49:25;17.20;99.90
39277;DHT22;63149;48.086;-1.606;2023-07-20T06:51:52;17.30;99.90
39277;DHT22;63149;48.086;-1.606;2023-07-20T06:54:19;17.30;99.90
39277;DHT22;63149;48.086;-1.606;2023-07-20T06:56:46;17.40;99.90
39277;DHT22;63149;48.086;-1.606;2023-07-20T06:59:13;17.50;99.90
39277;DHT22;63149;48.086;-1.606;2023-07-20T07:01:41;17.50;99.90
39277;DHT22;63149;48.086;-1.606;2023-07-20T07:04:08;17.60;99.90
39277;DHT22;63149;48.086;-1.606;2023-07-20T07:06:35;17.60;99.90
39277;DHT22;63149;48.086;-1.606;2023-07-20T07:09:02;17.60;99.90
39277;DHT22;63149;48.086;-1.606;2023-07-20T07:11:29;17.70;99.90
39277;DHT22;63149;48.086;-1.606;2023-07-20T07:13:56;17.80;99.90
39277;DHT22;63149;48.086;-1.606;2023-07-20T07:16:23;17.80;99.90
39277;DHT22;63149;48.086;-1.606;2023-07-20T07:18:51;17.80;99.90
39277;DHT22;63149;48.086;-1.606;2023-07-20T07:21:18;17.90;99.90
39277;DHT22;63149;48.086;-1.606;2023-07-20T07:23:46;18.00;99.90
39277;DHT22;63149;48.086;-1.606;2023-07-20T07:26:13;18.00;99.90
39277;DHT22;63149;48.086;-1.606;2023-07-20T07:28:40;18.10;99.90
39277;DHT22;63149;48.086;-1.606;2023-07-20T07:31:07;18.00;99.90
39277;DHT22;63149;48.086;-1.606;2023-07-20T07:33:34;18.10;99.90
39277;DHT22;63149;48.086;-1.606;2023-07-20T07:36:02;18.20;99.90
39277;DHT22;63149;48.086;-1.606;2023-07-20T07:38:29;18.20;99.90
39277;DHT22;63149;48.086;-1.606;2023-07-20T07:40:57;18.20;99.90
39277;DHT22;63149;48.086;-1.606;2023-07-20T07:43:24;18.30;99.90
39277;DHT22;63149;48.086;-1.606;2023-07-20T07:45:54;18.30;99.90
39277;DHT22;63149;48.086;-1.606;2023-07-20T07:48:21;18.30;99.90
39277;DHT22;63149;48.086;-1.606;2023-07-20T07:50:48;18.40;99.90
39277;DHT22;63149;48.086;-1.606;2023-07-20T07:53:16;18.50;99.90
39277;DHT22;63149;48.086;-1.606;2023-07-20T07:55:43;18.40;99.90
39277;DHT22;63149;48.086;-1.606;2023-07-20T07:58:10;18.50;99.90
39277;DHT22;63149;48.086;-1.606;2023-07-20T08:00:37;18.40;99.90
39277;DHT22;63149;48.086;-1.606;2023-07-20T08:03:06;18.60;99.90
39277;DHT22;63149;48.086;-1.606;2023-07-20T08:05:33;18.70;99.90
39277;DHT22;63149;48.086;-1.606;2023-07-20T08:08:00;18.70;99.90
39277;DHT22;63149;48.086;-1.606;2023-07-20T08:10:28;18.80;99.90
39277;DHT22;63149;48.086;-1.606;2023-07-20T08:12:55;18.70;99.90
39277;DHT22;63149;48.086;-1.606;2023-07-20T08:15:23;18.70;99.90
39277;DHT22;63149;48.086;-1.606;2023-07-20T08:17:50;18.80;99.90
39277;DHT22;63149;48.086;-1.606;2023-07-20T08:20:17;18.90;99.90
39277;DHT22;63149;48.086;-1.606;2023-07-20T08:22:44;19.00;99.90
39277;DHT22;63149;48.086;-1.606;2023-07-20T08:25:11;19.00;99.90
39277;DHT22;63149;48.086;-1.606;2023-07-20T08:27:40;19.10;99.90
39277;DHT22;63149;48.086;-1.606;2023-07-20T08:30:08;19.20;99.90
39277;DHT22;63149;48.086;-1.606;2023-07-20T08:32:35;19.30;99.90
39277;DHT22;63149;48.086;-1.606;2023-07-20T08:35:02;19.40;99.90
39277;DHT22;63149;48.086;-1.606;2023-07-20T08:37:29;19.40;99.90
39277;DHT22;63149;48.086;-1.606;2023-07-20T08:39:56;19.60;99.90
39277;DHT22;63149;48.086;-1.606;2023-07-20T08:42:23;19.60;99.90
39277;DHT22;63149;48.086;-1.606;2023-07-20T08:44:52;19.80;99.90
39277;DHT22;63149;48.086;-1.606;2023-07-20T08:47:20;19.80;99.90
39277;DHT22;63149;48.086;-1.606;2023-07-20T08:49:49;20.00;99.90
39277;DHT22;63149;48.086;-1.606;2023-07-20T08:52:16;20.00;99.90
39277;DHT22;63149;48.086;-1.606;2023-07-20T08:54:43;20.10;99.90
39277;DHT22;63149;48.086;-1.606;2023-07-20T08:57:13;20.20;99.90
39277;DHT22;63149;48.086;-1.606;2023-07-20T08:59:41;20.30;99.90
39277;DHT22;63149;48.086;-1.606;2023-07-20T09:02:14;20.40;99.90
39277;DHT22;63149;48.086;-1.606;2023-07-20T09:04:44;20.60;99.90
39277;DHT22;63149;48.086;-1.606;2023-07-20T09:07:11;20.80;99.90
39277;DHT22;63149;48.086;-1.606;2023-07-20T09:09:40;20.90;99.90
39277;DHT22;63149;48.086;-1.606;2023-07-20T09:12:13;21.00;99.90
39277;DHT22;63149;48.086;-1.606;2023-07-20T09:14:42;21.00;99.90
39277;DHT22;63149;48.086;-1.606;2023-07-20T09:17:14;21.10;99.90
39277;DHT22;63149;48.086;-1.606;2023-07-20T09:19:46;21.20;99.90
39277;DHT22;63149;48.086;-1.606;2023-07-20T09:22:13;21.20;99.90
39277;DHT22;63149;48.086;-1.606;2023-07-20T09:24:40;21.40;99.90
39277;DHT22;63149;48.086;-1.606;2023-07-20T09:27:08;21.50;99.90
39277;DHT22;63149;48.086;-1.606;2023-07-20T09:29:48;21.50;99.90
39277;DHT22;63149;48.086;-1.606;2023-07-20T09:32:20;21.60;99.90
39277;DHT22;63149;48.086;-1.606;2023-07-20T09:34:49;21.60;99.90
39277;DHT22;63149;48.086;-1.606;2023-07-20T09:37:20;21.50;99.90
39277;DHT22;63149;48.086;-1.606;2023-07-20T09:39:48;21.70;99.90
39277;DHT22;63149;48.086;-1.606;2023-07-20T09:42:18;21.80;99.90
39277;DHT22;63149;48.086;-1.606;2023-07-20T09:44:46;21.80;99.90
39277;DHT22;63149;48.086;-1.606;2023-07-20T09:47:13;21.90;99.90
39277;DHT22;63149;48.086;-1.606;2023-07-20T09:49:49;21.90;99.90
39277;DHT22;63149;48.086;-1.606;2023-07-20T09:52:16;21.90;99.90
39277;DHT22;63149;48.086;-1.606;2023-07-20T09:54:45;21.90;99.90
39277;DHT22;63149;48.086;-1.606;2023-07-20T09:57:13;21.90;99.90
39277;DHT22;63149;48.086;-1.606;2023-07-20T09:59:40;22.00;99.90
39277;DHT22;63149;48.086;-1.606;2023-07-20T10:02:13;22.00;99.90
39277;DHT22;63149;48.086;-1.606;2023-07-20T10:04:42;21.90;99.90
39277;DHT22;63149;48.086;-1.606;2023-07-20T10:07:12;22.10;99.90
39277;DHT22;63149;48.086;-1.606;2023-07-20T10:09:41;22.30;99.90
39277;DHT22;63149;48.086;-1.606;2023-07-20T10:12:09;22.50;99.90
39277;DHT22;63149;48.086;-1.606;2023-07-20T10:14:40;22.80;99.90
39277;DHT22;63149;48.086;-1.606;2023-07-20T10:17:11;23.00;99.90
39277;DHT22;63149;48.086;-1.606;2023-07-20T10:19:42;23.30;99.90
39277;DHT22;63149;48.086;-1.606;2023-07-20T10:22:13;23.50;99.90
39277;DHT22;63149;48.086;-1.606;2023-07-20T10:24:45;23.70;99.90
39277;DHT22;63149;48.086;-1.606;2023-07-20T10:27:13;23.80;99.90
39277;DHT22;63149;48.086;-1.606;2023-07-20T10:29:40;23.90;99.90
39277;DHT22;63149;48.086;-1.606;2023-07-20T10:32:08;23.90;99.90
39277;DHT22;63149;48.086;-1.606;2023-07-20T10:34:36;23.90;99.90
39277;DHT22;63149;48.086;-1.606;2023-07-20T10:37:03;24.00;99.90
39277;DHT22;63149;48.086;-1.606;2023-07-20T10:39:33;24.10;99.90
39277;DHT22;63149;48.086;-1.606;2023-07-20T10:42:01;24.20;99.90
39277;DHT22;63149;48.086;-1.606;2023-07-20T10:44:29;24.30;99.90
39277;DHT22;63149;48.086;-1.606;2023-07-20T10:47:00;24.50;99.90
39277;DHT22;63149;48.086;-1.606;2023-07-20T10:49:27;24.70;99.90
39277;DHT22;63149;48.086;-1.606;2023-07-20T10:51:58;24.70;99.90
39277;DHT22;63149;48.086;-1.606;2023-07-20T10:54:50;24.80;99.90
39277;DHT22;63149;48.086;-1.606;2023-07-20T10:57:30;24.90;99.90
39277;DHT22;63149;48.086;-1.606;2023-07-20T11:00:11;25.00;99.90
39277;DHT22;63149;48.086;-1.606;2023-07-20T11:02:43;25.10;99.90
39277;DHT22;63149;48.086;-1.606;2023-07-20T11:07:52;25.40;99.90
39277;DHT22;63149;48.086;-1.606;2023-07-20T11:10:20;25.60;99.90
39277;DHT22;63149;48.086;-1.606;2023-07-20T11:13:18;25.70;99.90
39277;DHT22;63149;48.086;-1.606;2023-07-20T11:15:46;25.90;99.90
39277;DHT22;63149;48.086;-1.606;2023-07-20T11:18:13;26.00;99.90
39277;DHT22;63149;48.086;-1.606;2023-07-20T11:20:41;26.10;99.90
39277;DHT22;63149;48.086;-1.606;2023-07-20T11:23:09;26.10;99.90
39277;DHT22;63149;48.086;-1.606;2023-07-20T11:25:41;26.10;99.90
39277;DHT22;63149;48.086;-1.606;2023-07-20T11:28:08;26.20;99.90
39277;DHT22;63149;48.086;-1.606;2023-07-20T11:30:37;26.30;99.90
39277;DHT22;63149;48.086;-1.606;2023-07-20T11:33:04;26.40;99.90
39277;DHT22;63149;48.086;-1.606;2023-07-20T11:35:35;26.50;99.90
39277;DHT22;63149;48.086;-1.606;2023-07-20T11:38:02;26.60;99.90
39277;DHT22;63149;48.086;-1.606;2023-07-20T11:40:29;26.80;99.90
39277;DHT22;63149;48.086;-1.606;2023-07-20T11:42:58;27.00;99.90
39277;DHT22;63149;48.086;-1.606;2023-07-20T11:45:25;27.00;99.90
39277;DHT22;63149;48.086;-1.606;2023-07-20T11:47:53;27.00;99.90
39277;DHT22;63149;48.086;-1.606;2023-07-20T11:50:20;27.10;99.90
39277;DHT22;63149;48.086;-1.606;2023-07-20T11:52:47;27.30;99.90
39277;DHT22;63149;48.086;-1.606;2023-07-20T11:55:14;27.50;99.90
39277;DHT22;63149;48.086;-1.606;2023-07-20T11:57:41;27.70;99.90
39277;DHT22;63149;48.086;-1.606;2023-07-20T12:00:10;27.50;99.90
39277;DHT22;63149;48.086;-1.606;2023-07-20T12:02:38;27.50;99.90
39277;DHT22;63149;48.086;-1.606;2023-07-20T12:05:06;27.60;99.90
39277;DHT22;63149;48.086;-1.606;2023-07-20T12:07:36;27.60;99.90
39277;DHT22;63149;48.086;-1.606;2023-07-20T12:10:06;27.50;99.90
39277;DHT22;63149;48.086;-1.606;2023-07-20T12:12:33;27.50;99.90
39277;DHT22;63149;48.086;-1.606;2023-07-20T12:15:16;27.30;99.90
39277;DHT22;63149;48.086;-1.606;2023-07-20T12:17:43;27.20;99.90
39277;DHT22;63149;48.086;-1.606;2023-07-20T12:20:11;27.00;99.90
39277;DHT22;63149;48.086;-1.606;2023-07-20T12:22:39;26.70;99.90
39277;DHT22;63149;48.086;-1.606;2023-07-20T12:25:07;26.80;99.90
39277;DHT22;63149;48.086;-1.606;2023-07-20T12:27:36;26.80;99.90
39277;DHT22;63149;48.086;-1.606;2023-07-20T12:30:04;26.80;99.90
39277;DHT22;63149;48.086;-1.606;2023-07-20T12:32:33;26.80;99.90
39277;DHT22;63149;48.086;-1.606;2023-07-20T12:35:00;26.80;99.90
39277;DHT22;63149;48.086;-1.606;2023-07-20T12:37:27;26.90;99.90
39277;DHT22;63149;48.086;-1.606;2023-07-20T12:39:55;26.80;99.90
39277;DHT22;63149;48.086;-1.606;2023-07-20T12:42:22;26.60;99.90
39277;DHT22;63149;48.086;-1.606;2023-07-20T12:44:49;26.70;99.90
39277;DHT22;63149;48.086;-1.606;2023-07-20T12:47:17;26.70;99.90
39277;DHT22;63149;48.086;-1.606;2023-07-20T12:49:46;26.70;99.90
39277;DHT22;63149;48.086;-1.606;2023-07-20T12:52:12;26.60;99.90
39277;DHT22;63149;48.086;-1.606;2023-07-20T12:54:40;26.50;99.90
39277;DHT22;63149;48.086;-1.606;2023-07-20T12:57:07;26.50;99.90
39277;DHT22;63149;48.086;-1.606;2023-07-20T12:59:33;26.50;99.90
39277;DHT22;63149;48.086;-1.606;2023-07-20T13:02:01;26.40;99.90
39277;DHT22;63149;48.086;-1.606;2023-07-20T13:04:28;26.40;99.90
39277;DHT22;63149;48.086;-1.606;2023-07-20T13:06:56;26.30;99.90
39277;DHT22;63149;48.086;-1.606;2023-07-20T13:09:24;26.30;99.90
39277;DHT22;63149;48.086;-1.606;2023-07-20T13:11:51;26.20;99.90
39277;DHT22;63149;48.086;-1.606;2023-07-20T13:14:18;26.20;99.90
39277;DHT22;63149;48.086;-1.606;2023-07-20T13:16:45;26.10;99.90
39277;DHT22;63149;48.086;-1.606;2023-07-20T13:19:12;26.10;99.90
39277;DHT22;63149;48.086;-1.606;2023-07-20T13:21:38;26.00;99.90
39277;DHT22;63149;48.086;-1.606;2023-07-20T13:24:08;26.00;99.90
39277;DHT22;63149;48.086;-1.606;2023-07-20T13:26:35;26.00;99.90
39277;DHT22;63149;48.086;-1.606;2023-07-20T13:29:02;26.00;99.90
39277;DHT22;63149;48.086;-1.606;2023-07-20T13:31:29;26.00;99.90
39277;DHT22;63149;48.086;-1.606;2023-07-20T13:33:56;26.00;99.90
39277;DHT22;63149;48.086;-1.606;2023-07-20T13:36:23;26.00;99.90
39277;DHT22;63149;48.086;-1.606;2023-07-20T13:38:50;26.00;99.90
39277;DHT22;63149;48.086;-1.606;2023-07-20T13:41:19;26.00;99.90
39277;DHT22;63149;48.086;-1.606;2023-07-20T13:43:46;26.00;99.90
39277;DHT22;63149;48.086;-1.606;2023-07-20T13:46:12;26.00;99.90
39277;DHT22;63149;48.086;-1.606;2023-07-20T13:48:39;26.00;99.90
39277;DHT22;63149;48.086;-1.606;2023-07-20T13:51:06;26.10;99.90
39277;DHT22;63149;48.086;-1.606;2023-07-20T13:53:33;26.00;99.90
39277;DHT22;63149;48.086;-1.606;2023-07-20T13:56:00;26.00;99.90
39277;DHT22;63149;48.086;-1.606;2023-07-20T13:58:32;25.90;99.90
39277;DHT22;63149;48.086;-1.606;2023-07-20T14:00:58;25.90;99.90
39277;DHT22;63149;48.086;-1.606;2023-07-20T14:03:25;25.90;99.90
39277;DHT22;63149;48.086;-1.606;2023-07-20T14:05:52;25.80;99.90
39277;DHT22;63149;48.086;-1.606;2023-07-20T14:08:20;25.80;99.90
39277;DHT22;63149;48.086;-1.606;2023-07-20T14:10:47;25.70;99.90
39277;DHT22;63149;48.086;-1.606;2023-07-20T14:13:14;25.70;99.90
39277;DHT22;63149;48.086;-1.606;2023-07-20T14:15:42;25.80;99.90
39277;DHT22;63149;48.086;-1.606;2023-07-20T14:18:09;25.80;99.90
39277;DHT22;63149;48.086;-1.606;2023-07-20T14:20:36;25.80;99.90
39277;DHT22;63149;48.086;-1.606;2023-07-20T14:23:03;25.70;99.90
39277;DHT22;63149;48.086;-1.606;2023-07-20T14:25:30;25.60;99.90
39277;DHT22;63149;48.086;-1.606;2023-07-20T14:27:58;25.60;99.90
39277;DHT22;63149;48.086;-1.606;2023-07-20T14:30:25;25.50;99.90
39277;DHT22;63149;48.086;-1.606;2023-07-20T14:32:53;25.50;99.90
39277;DHT22;63149;48.086;-1.606;2023-07-20T14:35:20;25.40;99.90
39277;DHT22;63149;48.086;-1.606;2023-07-20T14:37:47;25.30;99.90
39277;DHT22;63149;48.086;-1.606;2023-07-20T14:40:16;25.30;99.90
39277;DHT22;63149;48.086;-1.606;2023-07-20T14:42:43;25.10;99.90
39277;DHT22;63149;48.086;-1.606;2023-07-20T14:45:10;25.10;99.90
39277;DHT22;63149;48.086;-1.606;2023-07-20T14:47:37;25.10;99.90
39277;DHT22;63149;48.086;-1.606;2023-07-20T14:50:06;25.00;99.90
39277;DHT22;63149;48.086;-1.606;2023-07-20T14:52:33;24.90;99.90
39277;DHT22;63149;48.086;-1.606;2023-07-20T14:55:00;24.90;99.90
39277;DHT22;63149;48.086;-1.606;2023-07-20T14:57:27;24.80;99.90
39277;DHT22;63149;48.086;-1.606;2023-07-20T14:59:53;24.70;99.90
39277;DHT22;63149;48.086;-1.606;2023-07-20T15:02:21;24.70;99.90
39277;DHT22;63149;48.086;-1.606;2023-07-20T15:04:49;24.70;99.90
39277;DHT22;63149;48.086;-1.606;2023-07-20T15:07:18;24.60;99.90
39277;DHT22;63149;48.086;-1.606;2023-07-20T15:09:45;24.60;99.90
39277;DHT22;63149;48.086;-1.606;2023-07-20T15:12:12;24.60;99.90
39277;DHT22;63149;48.086;-1.606;2023-07-20T15:14:41;24.50;99.90
39277;DHT22;63149;48.086;-1.606;2023-07-20T15:17:08;24.50;99.90
39277;DHT22;63149;48.086;-1.606;2023-07-20T15:19:35;24.40;99.90
39277;DHT22;63149;48.086;-1.606;2023-07-20T15:22:03;24.30;99.90
39277;DHT22;63149;48.086;-1.606;2023-07-20T15:24:31;24.30;99.90
39277;DHT22;63149;48.086;-1.606;2023-07-20T15:26:58;24.20;99.90
39277;DHT22;63149;48.086;-1.606;2023-07-20T15:29:26;24.20;99.90
39277;DHT22;63149;48.086;-1.606;2023-07-20T15:31:53;24.10;99.90
39277;DHT22;63149;48.086;-1.606;2023-07-20T15:34:20;24.00;99.90
39277;DHT22;63149;48.086;-1.606;2023-07-20T15:36:47;23.90;99.90
39277;DHT22;63149;48.086;-1.606;2023-07-20T15:39:14;24.00;99.90
39277;DHT22;63149;48.086;-1.606;2023-07-20T15:41:42;23.90;99.90
39277;DHT22;63149;48.086;-1.606;2023-07-20T15:44:09;23.80;99.90
39277;DHT22;63149;48.086;-1.606;2023-07-20T15:46:45;23.80;99.90
39277;DHT22;63149;48.086;-1.606;2023-07-20T15:49:12;23.80;99.90
39277;DHT22;63149;48.086;-1.606;2023-07-20T15:51:39;23.80;99.90
39277;DHT22;63149;48.086;-1.606;2023-07-20T15:54:08;23.70;99.90
39277;DHT22;63149;48.086;-1.606;2023-07-20T15:56:36;23.60;99.90
39277;DHT22;63149;48.086;-1.606;2023-07-20T15:59:04;23.60;99.90
39277;DHT22;63149;48.086;-1.606;2023-07-20T16:01:32;23.70;99.90
39277;DHT22;63149;48.086;-1.606;2023-07-20T16:04:00;23.70;99.90
39277;DHT22;63149;48.086;-1.606;2023-07-20T16:06:27;23.60;99.90
39277;DHT22;63149;48.086;-1.606;2023-07-20T16:08:54;23.70;99.90
39277;DHT22;63149;48.086;-1.606;2023-07-20T16:11:21;23.60;99.90
39277;DHT22;63149;48.086;-1.606;2023-07-20T16:13:49;23.60;99.90
39277;DHT22;63149;48.086;-1.606;2023-07-20T16:16:17;23.70;99.90
39277;DHT22;63149;48.086;-1.606;2023-07-20T16:18:44;23.70;99.90
39277;DHT22;63149;48.086;-1.606;2023-07-20T16:21:11;23.70;99.90
39277;DHT22;63149;48.086;-1.606;2023-07-20T16:23:38;23.70;99.90
39277;DHT22;63149;48.086;-1.606;2023-07-20T16:26:05;23.70;99.90
39277;DHT22;63149;48.086;-1.606;2023-07-20T16:28:32;23.70;99.90
39277;DHT22;63149;48.086;-1.606;2023-07-20T16:30:59;23.60;99.90
39277;DHT22;63149;48.086;-1.606;2023-07-20T16:33:27;23.50;99.90
39277;DHT22;63149;48.086;-1.606;2023-07-20T16:35:54;23.50;99.90
39277;DHT22;63149;48.086;-1.606;2023-07-20T16:38:21;23.40;99.90
39277;DHT22;63149;48.086;-1.606;2023-07-20T16:40:48;23.40;99.90
39277;DHT22;63149;48.086;-1.606;2023-07-20T16:43:15;23.30;99.90
39277;DHT22;63149;48.086;-1.606;2023-07-20T16:45:42;23.30;99.90
39277;DHT22;63149;48.086;-1.606;2023-07-20T16:48:09;23.20;99.90
39277;DHT22;63149;48.086;-1.606;2023-07-20T16:50:38;23.20;99.90
39277;DHT22;63149;48.086;-1.606;2023-07-20T16:53:05;23.20;99.90
39277;DHT22;63149;48.086;-1.606;2023-07-20T16:55:32;23.10;99.90
39277;DHT22;63149;48.086;-1.606;2023-07-20T16:57:59;23.10;99.90
39277;DHT22;63149;48.086;-1.606;2023-07-20T17:00:26;23.00;99.90
39277;DHT22;63149;48.086;-1.606;2023-07-20T17:02:53;23.00;99.90
39277;DHT22;63149;48.086;-1.606;2023-07-20T17:05:20;22.90;99.90
39277;DHT22;63149;48.086;-1.606;2023-07-20T17:07:48;22.90;99.90
39277;DHT22;63149;48.086;-1.606;2023-07-20T17:10:22;22.90;99.90
39277;DHT22;63149;48.086;-1.606;2023-07-20T17:12:49;22.90;99.90
39277;DHT22;63149;48.086;-1.606;2023-07-20T17:15:17;22.80;99.90
39277;DHT22;63149;48.086;-1.606;2023-07-20T17:17:44;22.80;99.90
39277;DHT22;63149;48.086;-1.606;2023-07-20T17:20:11;22.70;99.90
39277;DHT22;63149;48.086;-1.606;2023-07-20T17:22:39;22.70;99.90
39277;DHT22;63149;48.086;-1.606;2023-07-20T17:25:08;22.70;99.90
39277;DHT22;63149;48.086;-1.606;2023-07-20T17:27:35;22.70;99.90
39277;DHT22;63149;48.086;-1.606;2023-07-20T17:30:02;22.60;99.90
39277;DHT22;63149;48.086;-1.606;2023-07-20T17:32:29;22.60;99.90
39277;DHT22;63149;48.086;-1.606;2023-07-20T17:34:56;22.60;99.90
39277;DHT22;63149;48.086;-1.606;2023-07-20T17:37:23;22.50;99.90
39277;DHT22;63149;48.086;-1.606;2023-07-20T17:39:50;22.40;99.90
39277;DHT22;63149;48.086;-1.606;2023-07-20T17:42:19;22.40;99.90
39277;DHT22;63149;48.086;-1.606;2023-07-20T17:44:46;22.30;99.90
39277;DHT22;63149;48.086;-1.606;2023-07-20T17:47:13;22.30;99.90
39277;DHT22;63149;48.086;-1.606;2023-07-20T17:49:40;22.30;99.90
39277;DHT22;63149;48.086;-1.606;2023-07-20T17:52:07;22.30;99.90
39277;DHT22;63149;48.086;-1.606;2023-07-20T17:54:34;22.30;99.90
39277;DHT22;63149;48.086;-1.606;2023-07-20T17:57:01;22.30;99.90
39277;DHT22;63149;48.086;-1.606;2023-07-20T17:59:30;22.30;99.90
39277;DHT22;63149;48.086;-1.606;2023-07-20T18:01:57;22.20;99.90
39277;DHT22;63149;48.086;-1.606;2023-07-20T18:04:25;22.20;99.90
39277;DHT22;63149;48.086;-1.606;2023-07-20T18:06:52;22.20;99.90
39277;DHT22;63149;48.086;-1.606;2023-07-20T18:09:19;22.10;99.90
39277;DHT22;63149;48.086;-1.606;2023-07-20T18:11:46;22.10;99.90
39277;DHT22;63149;48.086;-1.606;2023-07-20T18:14:13;22.10;99.90
39277;DHT22;63149;48.086;-1.606;2023-07-20T18:16:41;22.00;99.90
39277;DHT22;63149;48.086;-1.606;2023-07-20T18:19:08;22.00;99.90
39277;DHT22;63149;48.086;-1.606;2023-07-20T18:21:35;21.90;99.90
39277;DHT22;63149;48.086;-1.606;2023-07-20T18:24:02;21.90;99.90
39277;DHT22;63149;48.086;-1.606;2023-07-20T18:26:30;21.80;99.90
39277;DHT22;63149;48.086;-1.606;2023-07-20T18:28:56;21.80;99.90
39277;DHT22;63149;48.086;-1.606;2023-07-20T18:31:23;21.80;99.90
39277;DHT22;63149;48.086;-1.606;2023-07-20T18:33:52;21.70;99.90
39277;DHT22;63149;48.086;-1.606;2023-07-20T18:36:19;21.70;99.90
39277;DHT22;63149;48.086;-1.606;2023-07-20T18:38:46;21.70;99.90
39277;DHT22;63149;48.086;-1.606;2023-07-20T18:41:13;21.50;99.90
39277;DHT22;63149;48.086;-1.606;2023-07-20T18:43:42;21.50;99.90
39277;DHT22;63149;48.086;-1.606;2023-07-20T18:46:09;21.40;99.90
39277;DHT22;63149;48.086;-1.606;2023-07-20T18:48:36;21.40;99.90
39277;DHT22;63149;48.086;-1.606;2023-07-20T18:51:04;21.40;99.90
39277;DHT22;63149;48.086;-1.606;2023-07-20T18:53:33;21.30;99.90
39277;DHT22;63149;48.086;-1.606;2023-07-20T18:56:00;21.30;99.90
39277;DHT22;63149;48.086;-1.606;2023-07-20T18:58:27;21.20;99.90
39277;DHT22;63149;48.086;-1.606;2023-07-20T19:00:58;21.10;99.90
39277;DHT22;63149;48.086;-1.606;2023-07-20T19:03:25;21.00;99.90
39277;DHT22;63149;48.086;-1.606;2023-07-20T19:05:52;20.90;99.90
39277;DHT22;63149;48.086;-1.606;2023-07-20T19:08:20;20.80;99.90
39277;DHT22;63149;48.086;-1.606;2023-07-20T19:10:47;20.80;99.90
39277;DHT22;63149;48.086;-1.606;2023-07-20T19:13:14;20.80;99.90
39277;DHT22;63149;48.086;-1.606;2023-07-20T19:15:47;20.80;99.90
39277;DHT22;63149;48.086;-1.606;2023-07-20T19:18:14;20.70;99.90
39277;DHT22;63149;48.086;-1.606;2023-07-20T19:20:41;20.70;99.90
39277;DHT22;63149;48.086;-1.606;2023-07-20T19:23:08;20.60;99.90
39277;DHT22;63149;48.086;-1.606;2023-07-20T19:25:37;20.60;99.90
39277;DHT22;63149;48.086;-1.606;2023-07-20T19:28:04;20.60;99.90
39277;DHT22;63149;48.086;-1.606;2023-07-20T19:30:31;20.60;99.90
39277;DHT22;63149;48.086;-1.606;2023-07-20T19:32:58;20.60;99.90
39277;DHT22;63149;48.086;-1.606;2023-07-20T19:35:25;20.60;99.90
39277;DHT22;63149;48.086;-1.606;2023-07-20T19:37:52;20.50;99.90
39277;DHT22;63149;48.086;-1.606;2023-07-20T19:40:19;20.50;99.90
39277;DHT22;63149;48.086;-1.606;2023-07-20T19:42:47;20.30;99.90
39277;DHT22;63149;48.086;-1.606;2023-07-20T19:45:15;20.30;99.90
39277;DHT22;63149;48.086;-1.606;2023-07-20T19:47:42;20.20;99.90
39277;DHT22;63149;48.086;-1.606;2023-07-20T19:50:09;20.20;99.90
39277;DHT22;63149;48.086;-1.606;2023-07-20T19:52:36;20.00;99.90
39277;DHT22;63149;48.086;-1.606;2023-07-20T19:55:05;20.00;99.90
39277;DHT22;63149;48.086;-1.606;2023-07-20T19:57:32;20.00;99.90
39277;DHT22;63149;48.086;-1.606;2023-07-20T20:00:01;20.00;99.90
39277;DHT22;63149;48.086;-1.606;2023-07-20T20:02:29;20.00;99.90
39277;DHT22;63149;48.086;-1.606;2023-07-20T20:04:56;20.00;99.90
39277;DHT22;63149;48.086;-1.606;2023-07-20T20:07:23;20.00;99.90
39277;DHT22;63149;48.086;-1.606;2023-07-20T20:09:50;19.90;99.90
39277;DHT22;63149;48.086;-1.606;2023-07-20T20:12:18;19.80;99.90
39277;DHT22;63149;48.086;-1.606;2023-07-20T20:14:45;19.70;99.90
39277;DHT22;63149;48.086;-1.606;2023-07-20T20:17:14;19.70;99.90
39277;DHT22;63149;48.086;-1.606;2023-07-20T20:19:41;19.70;99.90
39277;DHT22;63149;48.086;-1.606;2023-07-20T20:22:09;19.60;99.90